Paro, Bhutan
Current Conditions -  °F | °C
As of 7:50 PM on Thursday 29 Jan 2015 (Local Time) from VNKT Reporting Station
Clear Clear  
Wind Chill: 52°   Ceiling: Unl
Heat Index: 52°   Visibility: 5mi
Dew Point: 43°   Wind: 6mph
Humidity: 71%   Direction: 200°SSW
Pressure: 30.09"   Gusts: NA
Location:  27.51°N, 89.36°E
Report Text: VNKT 291350Z 20005KT 8000 FERW020 11/06 Q1019 NOSIG
Loading
Personal Weather Stations






























Interactive Weather Map New forecast layout! Learn more

10-Day Weather Forecast

Advertisements
Track Severe Weather on mobile